sensor_id;sensor_type;location;lat;lon;timestamp;P1;durP1;ratioP1;P2;durP2;ratioP2
846;SDS011;410;48.954;9.474;2022-12-20T00:01:28;32.10;;;19.45;;
846;SDS011;410;48.954;9.474;2022-12-20T00:03:32;32.13;;;18.08;;
846;SDS011;410;48.954;9.474;2022-12-20T00:05:39;24.00;;;16.92;;
846;SDS011;410;48.954;9.474;2022-12-20T00:07:43;31.70;;;18.50;;
846;SDS011;410;48.954;9.474;2022-12-20T00:09:46;27.73;;;18.40;;
846;SDS011;410;48.954;9.474;2022-12-20T00:11:49;32.90;;;20.60;;
846;SDS011;410;48.954;9.474;2022-12-20T00:13:52;30.67;;;20.00;;
846;SDS011;410;48.954;9.474;2022-12-20T00:16:02;30.85;;;19.70;;
846;SDS011;410;48.954;9.474;2022-12-20T00:18:08;30.60;;;17.98;;
846;SDS011;410;48.954;9.474;2022-12-20T00:20:11;30.95;;;19.50;;
846;SDS011;410;48.954;9.474;2022-12-20T00:22:14;27.77;;;17.95;;
846;SDS011;410;48.954;9.474;2022-12-20T00:24:17;27.48;;;18.27;;
846;SDS011;410;48.954;9.474;2022-12-20T00:26:27;28.15;;;16.45;;
846;SDS011;410;48.954;9.474;2022-12-20T00:28:41;27.27;;;17.60;;
846;SDS011;410;48.954;9.474;2022-12-20T00:30:45;41.30;;;24.33;;
846;SDS011;410;48.954;9.474;2022-12-20T00:32:55;25.33;;;18.30;;
846;SDS011;410;48.954;9.474;2022-12-20T00:35:00;31.38;;;19.63;;
846;SDS011;410;48.954;9.474;2022-12-20T00:37:05;34.95;;;22.83;;
846;SDS011;410;48.954;9.474;2022-12-20T00:39:08;28.35;;;19.83;;
846;SDS011;410;48.954;9.474;2022-12-20T00:41:12;28.00;;;18.48;;
846;SDS011;410;48.954;9.474;2022-12-20T00:43:16;33.45;;;21.90;;
846;SDS011;410;48.954;9.474;2022-12-20T00:45:20;26.50;;;15.68;;
846;SDS011;410;48.954;9.474;2022-12-20T00:47:23;24.05;;;15.50;;
846;SDS011;410;48.954;9.474;2022-12-20T00:49:26;25.30;;;15.90;;
846;SDS011;410;48.954;9.474;2022-12-20T00:51:31;22.55;;;15.85;;
846;SDS011;410;48.954;9.474;2022-12-20T00:53:34;29.00;;;15.65;;
846;SDS011;410;48.954;9.474;2022-12-20T00:55:39;23.67;;;16.25;;
846;SDS011;410;48.954;9.474;2022-12-20T00:57:43;25.48;;;15.73;;
846;SDS011;410;48.954;9.474;2022-12-20T00:59:46;24.02;;;15.95;;
846;SDS011;410;48.954;9.474;2022-12-20T01:01:49;21.30;;;15.35;;
846;SDS011;410;48.954;9.474;2022-12-20T01:03:53;25.88;;;16.92;;
846;SDS011;410;48.954;9.474;2022-12-20T01:05:58;34.05;;;17.15;;
846;SDS011;410;48.954;9.474;2022-12-20T01:08:03;29.98;;;17.83;;
846;SDS011;410;48.954;9.474;2022-12-20T01:10:08;31.88;;;21.38;;
846;SDS011;410;48.954;9.474;2022-12-20T01:12:17;29.05;;;20.73;;
846;SDS011;410;48.954;9.474;2022-12-20T01:14:20;25.20;;;17.10;;
846;SDS011;410;48.954;9.474;2022-12-20T01:16:25;23.33;;;15.48;;
846;SDS011;410;48.954;9.474;2022-12-20T01:18:30;21.63;;;15.02;;
846;SDS011;410;48.954;9.474;2022-12-20T01:20:35;24.55;;;17.98;;
846;SDS011;410;48.954;9.474;2022-12-20T01:22:38;22.98;;;16.50;;
846;SDS011;410;48.954;9.474;2022-12-20T01:24:49;23.30;;;16.38;;
846;SDS011;410;48.954;9.474;2022-12-20T01:26:52;30.17;;;18.33;;
846;SDS011;410;48.954;9.474;2022-12-20T01:28:59;37.45;;;18.88;;
846;SDS011;410;48.954;9.474;2022-12-20T01:31:05;79.55;;;32.50;;
846;SDS011;410;48.954;9.474;2022-12-20T01:33:08;42.88;;;20.80;;
846;SDS011;410;48.954;9.474;2022-12-20T01:35:12;34.50;;;17.88;;
846;SDS011;410;48.954;9.474;2022-12-20T01:37:16;30.42;;;18.45;;
846;SDS011;410;48.954;9.474;2022-12-20T01:39:19;43.90;;;22.30;;
846;SDS011;410;48.954;9.474;2022-12-20T01:41:24;30.63;;;17.77;;
846;SDS011;410;48.954;9.474;2022-12-20T01:43:43;31.75;;;17.15;;
846;SDS011;410;48.954;9.474;2022-12-20T01:45:48;38.80;;;19.98;;
846;SDS011;410;48.954;9.474;2022-12-20T01:47:51;28.52;;;16.85;;
846;SDS011;410;48.954;9.474;2022-12-20T01:49:54;22.95;;;13.45;;
846;SDS011;410;48.954;9.474;2022-12-20T01:51:59;21.75;;;14.45;;
846;SDS011;410;48.954;9.474;2022-12-20T01:54:06;23.08;;;14.43;;
846;SDS011;410;48.954;9.474;2022-12-20T01:56:12;19.70;;;13.95;;
846;SDS011;410;48.954;9.474;2022-12-20T01:58:17;21.52;;;14.60;;
846;SDS011;410;48.954;9.474;2022-12-20T02:00:21;28.95;;;17.90;;
846;SDS011;410;48.954;9.474;2022-12-20T02:02:24;32.80;;;20.63;;
846;SDS011;410;48.954;9.474;2022-12-20T02:04:28;26.95;;;17.33;;
846;SDS011;410;48.954;9.474;2022-12-20T02:06:31;23.17;;;15.85;;
846;SDS011;410;48.954;9.474;2022-12-20T02:08:35;21.38;;;15.00;;
846;SDS011;410;48.954;9.474;2022-12-20T02:10:41;23.50;;;15.40;;
846;SDS011;410;48.954;9.474;2022-12-20T02:12:53;22.63;;;15.43;;
846;SDS011;410;48.954;9.474;2022-12-20T02:15:05;19.90;;;13.60;;
846;SDS011;410;48.954;9.474;2022-12-20T02:17:18;20.25;;;13.85;;
846;SDS011;410;48.954;9.474;2022-12-20T02:21:57;17.92;;;12.73;;
846;SDS011;410;48.954;9.474;2022-12-20T02:24:26;17.38;;;12.15;;
846;SDS011;410;48.954;9.474;2022-12-20T02:29:11;17.98;;;12.15;;
846;SDS011;410;48.954;9.474;2022-12-20T02:31:31;25.00;;;13.82;;
846;SDS011;410;48.954;9.474;2022-12-20T02:33:38;18.15;;;12.95;;
846;SDS011;410;48.954;9.474;2022-12-20T02:35:43;19.70;;;14.13;;
846;SDS011;410;48.954;9.474;2022-12-20T02:37:51;20.38;;;12.52;;
846;SDS011;410;48.954;9.474;2022-12-20T02:39:56;19.85;;;13.13;;
846;SDS011;410;48.954;9.474;2022-12-20T02:42:00;19.35;;;12.63;;
846;SDS011;410;48.954;9.474;2022-12-20T02:44:06;16.33;;;12.48;;
846;SDS011;410;48.954;9.474;2022-12-20T02:46:32;16.63;;;11.75;;
846;SDS011;410;48.954;9.474;2022-12-20T02:48:35;19.08;;;11.80;;
846;SDS011;410;48.954;9.474;2022-12-20T02:50:39;17.83;;;12.27;;
846;SDS011;410;48.954;9.474;2022-12-20T02:52:46;17.35;;;11.65;;
846;SDS011;410;48.954;9.474;2022-12-20T02:54:51;14.93;;;10.88;;
846;SDS011;410;48.954;9.474;2022-12-20T02:56:54;17.67;;;12.63;;
846;SDS011;410;48.954;9.474;2022-12-20T02:59:00;16.08;;;11.15;;
846;SDS011;410;48.954;9.474;2022-12-20T03:01:06;17.75;;;11.80;;
846;SDS011;410;48.954;9.474;2022-12-20T03:03:13;16.80;;;10.68;;
846;SDS011;410;48.954;9.474;2022-12-20T03:05:26;15.07;;;11.10;;
846;SDS011;410;48.954;9.474;2022-12-20T03:07:32;15.88;;;10.80;;
846;SDS011;410;48.954;9.474;2022-12-20T03:09:36;15.15;;;10.52;;
846;SDS011;410;48.954;9.474;2022-12-20T03:11:40;16.98;;;12.00;;
846;SDS011;410;48.954;9.474;2022-12-20T03:13:43;19.13;;;11.00;;
846;SDS011;410;48.954;9.474;2022-12-20T03:15:46;17.08;;;11.50;;
846;SDS011;410;48.954;9.474;2022-12-20T03:17:49;14.88;;;10.55;;
846;SDS011;410;48.954;9.474;2022-12-20T03:19:54;18.45;;;11.95;;
846;SDS011;410;48.954;9.474;2022-12-20T03:21:58;14.75;;;10.77;;
846;SDS011;410;48.954;9.474;2022-12-20T03:24:04;17.27;;;11.60;;
846;SDS011;410;48.954;9.474;2022-12-20T03:26:08;15.63;;;11.00;;
846;SDS011;410;48.954;9.474;2022-12-20T03:28:20;14.85;;;10.50;;
846;SDS011;410;48.954;9.474;2022-12-20T03:30:23;19.00;;;11.30;;
846;SDS011;410;48.954;9.474;2022-12-20T03:32:26;16.05;;;11.75;;
846;SDS011;410;48.954;9.474;2022-12-20T03:34:30;14.75;;;10.57;;
846;SDS011;410;48.954;9.474;2022-12-20T03:36:35;17.98;;;11.65;;
846;SDS011;410;48.954;9.474;2022-12-20T03:38:39;15.77;;;10.90;;
846;SDS011;410;48.954;9.474;2022-12-20T03:40:44;15.75;;;11.48;;
846;SDS011;410;48.954;9.474;2022-12-20T03:42:51;14.68;;;10.68;;
846;SDS011;410;48.954;9.474;2022-12-20T03:44:55;22.20;;;13.10;;
846;SDS011;410;48.954;9.474;2022-12-20T03:47:01;17.75;;;11.38;;
846;SDS011;410;48.954;9.474;2022-12-20T03:49:04;14.50;;;10.55;;
846;SDS011;410;48.954;9.474;2022-12-20T03:51:15;15.88;;;11.57;;
846;SDS011;410;48.954;9.474;2022-12-20T03:53:20;16.52;;;11.02;;
846;SDS011;410;48.954;9.474;2022-12-20T03:55:24;13.63;;;9.63;;
846;SDS011;410;48.954;9.474;2022-12-20T03:57:27;14.80;;;11.07;;
846;SDS011;410;48.954;9.474;2022-12-20T03:59:31;15.77;;;10.90;;
846;SDS011;410;48.954;9.474;2022-12-20T04:01:37;14.05;;;10.10;;
846;SDS011;410;48.954;9.474;2022-12-20T04:03:40;13.38;;;10.13;;
846;SDS011;410;48.954;9.474;2022-12-20T04:05:44;14.63;;;10.20;;
846;SDS011;410;48.954;9.474;2022-12-20T04:07:47;16.55;;;10.40;;
846;SDS011;410;48.954;9.474;2022-12-20T04:09:52;12.43;;;9.98;;
846;SDS011;410;48.954;9.474;2022-12-20T04:11:55;14.48;;;9.57;;
846;SDS011;410;48.954;9.474;2022-12-20T04:13:58;13.65;;;10.07;;
846;SDS011;410;48.954;9.474;2022-12-20T04:16:01;13.77;;;9.93;;
846;SDS011;410;48.954;9.474;2022-12-20T04:18:06;12.35;;;9.25;;
846;SDS011;410;48.954;9.474;2022-12-20T04:20:11;13.48;;;9.90;;
846;SDS011;410;48.954;9.474;2022-12-20T04:22:35;13.70;;;10.00;;
846;SDS011;410;48.954;9.474;2022-12-20T04:24:39;14.98;;;10.30;;
846;SDS011;410;48.954;9.474;2022-12-20T04:26:59;13.52;;;9.55;;
846;SDS011;410;48.954;9.474;2022-12-20T04:29:02;13.40;;;8.98;;
846;SDS011;410;48.954;9.474;2022-12-20T04:31:06;13.48;;;9.15;;
846;SDS011;410;48.954;9.474;2022-12-20T04:33:10;13.45;;;9.20;;
846;SDS011;410;48.954;9.474;2022-12-20T04:35:15;13.27;;;9.15;;
846;SDS011;410;48.954;9.474;2022-12-20T04:37:18;15.07;;;10.10;;
846;SDS011;410;48.954;9.474;2022-12-20T04:39:25;12.05;;;8.85;;
846;SDS011;410;48.954;9.474;2022-12-20T04:41:47;12.80;;;9.05;;
846;SDS011;410;48.954;9.474;2022-12-20T04:43:52;13.85;;;10.35;;
846;SDS011;410;48.954;9.474;2022-12-20T04:45:57;13.75;;;8.65;;
846;SDS011;410;48.954;9.474;2022-12-20T04:48:01;11.38;;;8.65;;
846;SDS011;410;48.954;9.474;2022-12-20T04:50:25;11.90;;;9.00;;
846;SDS011;410;48.954;9.474;2022-12-20T04:52:28;14.32;;;8.80;;
846;SDS011;410;48.954;9.474;2022-12-20T04:54:50;11.25;;;8.57;;
846;SDS011;410;48.954;9.474;2022-12-20T04:56:59;10.35;;;8.27;;
846;SDS011;410;48.954;9.474;2022-12-20T04:59:04;24.77;;;14.90;;
846;SDS011;410;48.954;9.474;2022-12-20T05:01:07;20.67;;;13.25;;
846;SDS011;410;48.954;9.474;2022-12-20T05:03:18;14.93;;;10.20;;
846;SDS011;410;48.954;9.474;2022-12-20T05:05:22;13.75;;;9.30;;
846;SDS011;410;48.954;9.474;2022-12-20T05:07:27;12.52;;;9.10;;
846;SDS011;410;48.954;9.474;2022-12-20T05:09:31;19.55;;;10.75;;
846;SDS011;410;48.954;9.474;2022-12-20T05:11:34;19.60;;;10.85;;
846;SDS011;410;48.954;9.474;2022-12-20T05:13:41;15.18;;;10.52;;
846;SDS011;410;48.954;9.474;2022-12-20T05:15:48;12.90;;;9.82;;
846;SDS011;410;48.954;9.474;2022-12-20T05:17:56;19.85;;;9.68;;
846;SDS011;410;48.954;9.474;2022-12-20T05:20:05;11.90;;;8.93;;
846;SDS011;410;48.954;9.474;2022-12-20T05:22:11;12.23;;;8.93;;
846;SDS011;410;48.954;9.474;2022-12-20T05:24:39;13.90;;;9.73;;
846;SDS011;410;48.954;9.474;2022-12-20T05:27:06;11.60;;;8.63;;
846;SDS011;410;48.954;9.474;2022-12-20T05:29:09;13.65;;;9.30;;
846;SDS011;410;48.954;9.474;2022-12-20T05:31:14;12.23;;;8.98;;
846;SDS011;410;48.954;9.474;2022-12-20T05:33:17;11.55;;;9.07;;
846;SDS011;410;48.954;9.474;2022-12-20T05:35:20;11.82;;;8.55;;
846;SDS011;410;48.954;9.474;2022-12-20T05:37:29;12.00;;;8.95;;
846;SDS011;410;48.954;9.474;2022-12-20T05:39:40;12.05;;;8.50;;
846;SDS011;410;48.954;9.474;2022-12-20T05:41:49;10.27;;;8.80;;
846;SDS011;410;48.954;9.474;2022-12-20T05:43:56;13.77;;;8.95;;
846;SDS011;410;48.954;9.474;2022-12-20T05:46:00;10.60;;;9.00;;
846;SDS011;410;48.954;9.474;2022-12-20T05:48:14;13.15;;;9.05;;
846;SDS011;410;48.954;9.474;2022-12-20T05:50:18;13.35;;;9.60;;
846;SDS011;410;48.954;9.474;2022-12-20T05:52:50;12.82;;;9.07;;
846;SDS011;410;48.954;9.474;2022-12-20T05:55:01;12.23;;;9.88;;
846;SDS011;410;48.954;9.474;2022-12-20T05:57:04;10.98;;;8.75;;
846;SDS011;410;48.954;9.474;2022-12-20T05:59:13;11.77;;;8.65;;
846;SDS011;410;48.954;9.474;2022-12-20T06:01:20;13.23;;;9.02;;
846;SDS011;410;48.954;9.474;2022-12-20T06:03:27;11.40;;;8.90;;
846;SDS011;410;48.954;9.474;2022-12-20T06:05:32;11.93;;;8.00;;
846;SDS011;410;48.954;9.474;2022-12-20T06:07:35;11.60;;;8.27;;
846;SDS011;410;48.954;9.474;2022-12-20T06:09:39;11.50;;;8.70;;
846;SDS011;410;48.954;9.474;2022-12-20T06:11:46;13.80;;;8.43;;
846;SDS011;410;48.954;9.474;2022-12-20T06:13:49;14.27;;;8.40;;
846;SDS011;410;48.954;9.474;2022-12-20T06:15:53;11.35;;;8.70;;
846;SDS011;410;48.954;9.474;2022-12-20T06:17:56;10.10;;;8.35;;
846;SDS011;410;48.954;9.474;2022-12-20T06:20:01;10.82;;;8.73;;
846;SDS011;410;48.954;9.474;2022-12-20T06:22:04;12.07;;;8.45;;
846;SDS011;410;48.954;9.474;2022-12-20T06:24:21;10.57;;;8.20;;
846;SDS011;410;48.954;9.474;2022-12-20T06:26:26;11.45;;;8.30;;
846;SDS011;410;48.954;9.474;2022-12-20T06:28:38;10.27;;;7.60;;
846;SDS011;410;48.954;9.474;2022-12-20T06:30:58;10.80;;;8.30;;
846;SDS011;410;48.954;9.474;2022-12-20T06:33:12;10.88;;;7.90;;
846;SDS011;410;48.954;9.474;2022-12-20T06:35:19;11.48;;;8.63;;
846;SDS011;410;48.954;9.474;2022-12-20T06:37:22;12.82;;;8.60;;
846;SDS011;410;48.954;9.474;2022-12-20T06:39:25;10.30;;;8.27;;
846;SDS011;410;48.954;9.474;2022-12-20T06:41:36;12.27;;;7.60;;
846;SDS011;410;48.954;9.474;2022-12-20T06:43:39;10.98;;;8.13;;
846;SDS011;410;48.954;9.474;2022-12-20T06:45:42;9.68;;;8.00;;
846;SDS011;410;48.954;9.474;2022-12-20T06:47:46;10.88;;;8.55;;
846;SDS011;410;48.954;9.474;2022-12-20T06:49:50;9.23;;;7.85;;
846;SDS011;410;48.954;9.474;2022-12-20T06:51:57;9.75;;;7.70;;
846;SDS011;410;48.954;9.474;2022-12-20T06:54:17;10.93;;;7.75;;
846;SDS011;410;48.954;9.474;2022-12-20T06:56:39;11.70;;;9.25;;
846;SDS011;410;48.954;9.474;2022-12-20T06:58:44;12.50;;;7.97;;
846;SDS011;410;48.954;9.474;2022-12-20T07:00:48;9.77;;;7.75;;
846;SDS011;410;48.954;9.474;2022-12-20T07:02:51;9.85;;;7.70;;
846;SDS011;410;48.954;9.474;2022-12-20T07:04:55;10.50;;;8.55;;
846;SDS011;410;48.954;9.474;2022-12-20T07:06:59;11.30;;;8.63;;
846;SDS011;410;48.954;9.474;2022-12-20T07:09:02;12.40;;;9.20;;
846;SDS011;410;48.954;9.474;2022-12-20T07:11:06;15.48;;;9.30;;
846;SDS011;410;48.954;9.474;2022-12-20T07:13:09;14.93;;;9.57;;
846;SDS011;410;48.954;9.474;2022-12-20T07:15:12;11.50;;;8.65;;
846;SDS011;410;48.954;9.474;2022-12-20T07:17:16;9.80;;;8.75;;
846;SDS011;410;48.954;9.474;2022-12-20T07:19:19;11.45;;;8.63;;
846;SDS011;410;48.954;9.474;2022-12-20T07:21:23;11.73;;;8.48;;
846;SDS011;410;48.954;9.474;2022-12-20T07:23:28;12.43;;;8.75;;
846;SDS011;410;48.954;9.474;2022-12-20T07:25:31;14.32;;;8.68;;
846;SDS011;410;48.954;9.474;2022-12-20T07:27:34;11.75;;;7.85;;
846;SDS011;410;48.954;9.474;2022-12-20T07:29:37;10.65;;;8.75;;
846;SDS011;410;48.954;9.474;2022-12-20T07:31:41;10.40;;;8.32;;
846;SDS011;410;48.954;9.474;2022-12-20T07:33:44;12.15;;;8.93;;
846;SDS011;410;48.954;9.474;2022-12-20T07:35:47;11.73;;;8.30;;
846;SDS011;410;48.954;9.474;2022-12-20T07:37:55;10.95;;;7.60;;
846;SDS011;410;48.954;9.474;2022-12-20T07:39:59;9.75;;;8.10;;
846;SDS011;410;48.954;9.474;2022-12-20T07:42:02;10.32;;;8.32;;
846;SDS011;410;48.954;9.474;2022-12-20T07:44:15;11.45;;;8.77;;
846;SDS011;410;48.954;9.474;2022-12-20T07:46:19;12.40;;;8.88;;
846;SDS011;410;48.954;9.474;2022-12-20T07:48:22;12.23;;;9.10;;
846;SDS011;410;48.954;9.474;2022-12-20T07:50:26;13.48;;;10.07;;
846;SDS011;410;48.954;9.474;2022-12-20T07:52:29;13.65;;;10.38;;
846;SDS011;410;48.954;9.474;2022-12-20T07:54:35;14.60;;;10.38;;
846;SDS011;410;48.954;9.474;2022-12-20T07:56:41;18.77;;;11.90;;
846;SDS011;410;48.954;9.474;2022-12-20T07:58:47;14.20;;;11.35;;
846;SDS011;410;48.954;9.474;2022-12-20T08:00:52;16.88;;;12.60;;
846;SDS011;410;48.954;9.474;2022-12-20T08:02:56;15.13;;;11.65;;
846;SDS011;410;48.954;9.474;2022-12-20T08:05:04;15.85;;;12.45;;
846;SDS011;410;48.954;9.474;2022-12-20T08:07:09;20.38;;;12.35;;
846;SDS011;410;48.954;9.474;2022-12-20T08:09:13;18.27;;;12.75;;
846;SDS011;410;48.954;9.474;2022-12-20T08:11:16;16.13;;;11.65;;
846;SDS011;410;48.954;9.474;2022-12-20T08:13:21;15.73;;;11.52;;
846;SDS011;410;48.954;9.474;2022-12-20T08:15:24;15.80;;;10.38;;
846;SDS011;410;48.954;9.474;2022-12-20T08:17:28;13.75;;;10.88;;
846;SDS011;410;48.954;9.474;2022-12-20T08:19:31;15.63;;;10.45;;
846;SDS011;410;48.954;9.474;2022-12-20T08:21:34;18.15;;;11.30;;
846;SDS011;410;48.954;9.474;2022-12-20T08:23:37;14.32;;;10.63;;
846;SDS011;410;48.954;9.474;2022-12-20T08:25:40;17.10;;;12.00;;
846;SDS011;410;48.954;9.474;2022-12-20T08:27:43;15.35;;;10.85;;
846;SDS011;410;48.954;9.474;2022-12-20T08:29:48;16.70;;;11.85;;
846;SDS011;410;48.954;9.474;2022-12-20T08:31:54;16.60;;;11.45;;
846;SDS011;410;48.954;9.474;2022-12-20T08:33:57;14.38;;;11.05;;
846;SDS011;410;48.954;9.474;2022-12-20T08:36:01;18.33;;;14.15;;
846;SDS011;410;48.954;9.474;2022-12-20T08:38:05;28.40;;;17.10;;
846;SDS011;410;48.954;9.474;2022-12-20T08:40:09;31.48;;;19.33;;
846;SDS011;410;48.954;9.474;2022-12-20T08:42:15;29.85;;;17.73;;
846;SDS011;410;48.954;9.474;2022-12-20T08:44:20;17.80;;;11.75;;
846;SDS011;410;48.954;9.474;2022-12-20T08:46:25;17.63;;;11.63;;
846;SDS011;410;48.954;9.474;2022-12-20T08:48:28;18.38;;;13.32;;
846;SDS011;410;48.954;9.474;2022-12-20T08:50:32;22.33;;;16.10;;
846;SDS011;410;48.954;9.474;2022-12-20T08:52:36;30.70;;;18.80;;
846;SDS011;410;48.954;9.474;2022-12-20T08:54:40;39.05;;;22.40;;
846;SDS011;410;48.954;9.474;2022-12-20T08:56:43;34.40;;;21.55;;
846;SDS011;410;48.954;9.474;2022-12-20T08:58:46;27.15;;;18.13;;
846;SDS011;410;48.954;9.474;2022-12-20T09:00:49;26.10;;;18.77;;
846;SDS011;410;48.954;9.474;2022-12-20T09:02:54;27.05;;;16.48;;
846;SDS011;410;48.954;9.474;2022-12-20T09:04:57;20.30;;;14.07;;
846;SDS011;410;48.954;9.474;2022-12-20T09:07:00;17.35;;;12.68;;
846;SDS011;410;48.954;9.474;2022-12-20T09:09:04;21.50;;;14.10;;
846;SDS011;410;48.954;9.474;2022-12-20T09:11:08;16.90;;;13.43;;
846;SDS011;410;48.954;9.474;2022-12-20T09:13:12;16.77;;;13.02;;
846;SDS011;410;48.954;9.474;2022-12-20T09:15:16;20.48;;;14.10;;
846;SDS011;410;48.954;9.474;2022-12-20T09:17:19;16.88;;;12.88;;
846;SDS011;410;48.954;9.474;2022-12-20T09:19:23;15.38;;;12.38;;
846;SDS011;410;48.954;9.474;2022-12-20T09:21:26;21.13;;;15.02;;
846;SDS011;410;48.954;9.474;2022-12-20T09:23:30;20.05;;;13.40;;
846;SDS011;410;48.954;9.474;2022-12-20T09:25:35;20.90;;;14.40;;
846;SDS011;410;48.954;9.474;2022-12-20T09:27:38;22.35;;;13.85;;
846;SDS011;410;48.954;9.474;2022-12-20T09:29:42;18.38;;;14.18;;
846;SDS011;410;48.954;9.474;2022-12-20T09:31:44;21.02;;;15.93;;
846;SDS011;410;48.954;9.474;2022-12-20T09:33:48;18.85;;;14.00;;
846;SDS011;410;48.954;9.474;2022-12-20T09:35:53;19.13;;;14.77;;
846;SDS011;410;48.954;9.474;2022-12-20T09:37:56;21.05;;;14.85;;
846;SDS011;410;48.954;9.474;2022-12-20T09:39:59;25.73;;;17.33;;
846;SDS011;410;48.954;9.474;2022-12-20T09:42:05;24.77;;;17.10;;
846;SDS011;410;48.954;9.474;2022-12-20T09:44:11;21.25;;;14.70;;
846;SDS011;410;48.954;9.474;2022-12-20T09:46:17;19.80;;;14.52;;
846;SDS011;410;48.954;9.474;2022-12-20T09:48:22;17.20;;;13.98;;
846;SDS011;410;48.954;9.474;2022-12-20T09:50:31;21.15;;;14.35;;
846;SDS011;410;48.954;9.474;2022-12-20T09:52:49;19.65;;;14.13;;
846;SDS011;410;48.954;9.474;2022-12-20T09:55:00;22.85;;;17.55;;
846;SDS011;410;48.954;9.474;2022-12-20T09:57:13;55.47;;;31.55;;
846;SDS011;410;48.954;9.474;2022-12-20T09:59:38;50.38;;;32.53;;
846;SDS011;410;48.954;9.474;2022-12-20T10:01:50;44.97;;;27.27;;
846;SDS011;410;48.954;9.474;2022-12-20T10:03:54;39.08;;;24.83;;
846;SDS011;410;48.954;9.474;2022-12-20T10:05:59;36.10;;;23.25;;
846;SDS011;410;48.954;9.474;2022-12-20T10:08:12;30.83;;;19.58;;
846;SDS011;410;48.954;9.474;2022-12-20T10:10:32;24.50;;;17.58;;
846;SDS011;410;48.954;9.474;2022-12-20T10:12:42;25.33;;;16.88;;
846;SDS011;410;48.954;9.474;2022-12-20T10:14:52;21.38;;;14.10;;
846;SDS011;410;48.954;9.474;2022-12-20T10:17:03;20.92;;;14.55;;
846;SDS011;410;48.954;9.474;2022-12-20T10:19:25;18.05;;;13.73;;
846;SDS011;410;48.954;9.474;2022-12-20T10:21:36;21.33;;;14.23;;
846;SDS011;410;48.954;9.474;2022-12-20T10:23:44;21.08;;;14.88;;
846;SDS011;410;48.954;9.474;2022-12-20T10:25:58;21.77;;;15.20;;
846;SDS011;410;48.954;9.474;2022-12-20T10:28:02;22.50;;;16.63;;
846;SDS011;410;48.954;9.474;2022-12-20T10:32:16;20.17;;;15.20;;
846;SDS011;410;48.954;9.474;2022-12-20T10:34:21;23.27;;;15.00;;
846;SDS011;410;48.954;9.474;2022-12-20T10:36:26;20.10;;;14.50;;
846;SDS011;410;48.954;9.474;2022-12-20T10:38:31;17.85;;;14.15;;
846;SDS011;410;48.954;9.474;2022-12-20T10:40:48;18.48;;;14.18;;
846;SDS011;410;48.954;9.474;2022-12-20T10:43:22;18.27;;;14.20;;
846;SDS011;410;48.954;9.474;2022-12-20T10:45:34;19.83;;;15.30;;
846;SDS011;410;48.954;9.474;2022-12-20T10:47:39;23.75;;;16.55;;
846;SDS011;410;48.954;9.474;2022-12-20T10:49:43;28.48;;;18.20;;
846;SDS011;410;48.954;9.474;2022-12-20T10:51:50;23.35;;;15.88;;
846;SDS011;410;48.954;9.474;2022-12-20T10:53:56;23.33;;;15.88;;
846;SDS011;410;48.954;9.474;2022-12-20T10:56:15;22.05;;;15.57;;
846;SDS011;410;48.954;9.474;2022-12-20T10:58:27;22.15;;;15.38;;
846;SDS011;410;48.954;9.474;2022-12-20T11:00:34;21.65;;;15.82;;
846;SDS011;410;48.954;9.474;2022-12-20T11:02:39;16.55;;;13.23;;
846;SDS011;410;48.954;9.474;2022-12-20T11:04:44;18.52;;;12.93;;
846;SDS011;410;48.954;9.474;2022-12-20T11:06:59;19.05;;;13.77;;
846;SDS011;410;48.954;9.474;2022-12-20T11:11:38;20.95;;;13.82;;
846;SDS011;410;48.954;9.474;2022-12-20T11:13:42;32.10;;;22.00;;
846;SDS011;410;48.954;9.474;2022-12-20T11:15:46;26.52;;;19.17;;
846;SDS011;410;48.954;9.474;2022-12-20T11:17:50;38.60;;;26.90;;
846;SDS011;410;48.954;9.474;2022-12-20T11:20:10;31.00;;;18.95;;
846;SDS011;410;48.954;9.474;2022-12-20T11:22:26;22.48;;;17.10;;
846;SDS011;410;48.954;9.474;2022-12-20T11:24:39;52.03;;;31.25;;
846;SDS011;410;48.954;9.474;2022-12-20T11:26:54;44.50;;;28.00;;
846;SDS011;410;48.954;9.474;2022-12-20T11:29:06;28.75;;;19.58;;
846;SDS011;410;48.954;9.474;2022-12-20T11:31:19;26.80;;;19.25;;
846;SDS011;410;48.954;9.474;2022-12-20T11:33:49;39.78;;;25.90;;
846;SDS011;410;48.954;9.474;2022-12-20T11:36:00;43.15;;;26.27;;
846;SDS011;410;48.954;9.474;2022-12-20T11:38:06;77.80;;;41.42;;
846;SDS011;410;48.954;9.474;2022-12-20T11:40:17;83.20;;;44.90;;
846;SDS011;410;48.954;9.474;2022-12-20T11:42:29;64.80;;;37.95;;
846;SDS011;410;48.954;9.474;2022-12-20T11:44:45;55.13;;;33.58;;
846;SDS011;410;48.954;9.474;2022-12-20T11:47:14;39.55;;;24.48;;
846;SDS011;410;48.954;9.474;2022-12-20T11:52:09;19.70;;;15.32;;
846;SDS011;410;48.954;9.474;2022-12-20T11:54:20;18.30;;;14.70;;
846;SDS011;410;48.954;9.474;2022-12-20T11:56:29;28.95;;;18.40;;
846;SDS011;410;48.954;9.474;2022-12-20T11:58:45;45.22;;;25.05;;
846;SDS011;410;48.954;9.474;2022-12-20T12:00:53;35.28;;;23.02;;
846;SDS011;410;48.954;9.474;2022-12-20T12:02:58;135.82;;;80.68;;
846;SDS011;410;48.954;9.474;2022-12-20T12:05:06;40.07;;;31.20;;
846;SDS011;410;48.954;9.474;2022-12-20T12:07:19;39.05;;;28.70;;
846;SDS011;410;48.954;9.474;2022-12-20T12:09:26;31.05;;;21.75;;
846;SDS011;410;48.954;9.474;2022-12-20T12:11:35;24.35;;;18.30;;
846;SDS011;410;48.954;9.474;2022-12-20T12:14:01;26.80;;;18.83;;
846;SDS011;410;48.954;9.474;2022-12-20T12:16:07;29.52;;;18.73;;
846;SDS011;410;48.954;9.474;2022-12-20T12:18:13;30.60;;;21.30;;
846;SDS011;410;48.954;9.474;2022-12-20T12:20:22;38.00;;;23.98;;
846;SDS011;410;48.954;9.474;2022-12-20T12:22:36;33.55;;;21.95;;
846;SDS011;410;48.954;9.474;2022-12-20T12:24:41;30.98;;;21.67;;
846;SDS011;410;48.954;9.474;2022-12-20T12:26:47;37.80;;;21.95;;
846;SDS011;410;48.954;9.474;2022-12-20T12:28:52;27.92;;;18.73;;
846;SDS011;410;48.954;9.474;2022-12-20T12:30:57;25.75;;;17.55;;
846;SDS011;410;48.954;9.474;2022-12-20T12:33:05;20.95;;;16.67;;
846;SDS011;410;48.954;9.474;2022-12-20T12:35:17;18.70;;;14.85;;
846;SDS011;410;48.954;9.474;2022-12-20T12:45:17;24.63;;;16.88;;
846;SDS011;410;48.954;9.474;2022-12-20T12:47:24;23.30;;;17.65;;
846;SDS011;410;48.954;9.474;2022-12-20T12:49:31;19.48;;;15.68;;
846;SDS011;410;48.954;9.474;2022-12-20T12:51:35;23.42;;;16.75;;
846;SDS011;410;48.954;9.474;2022-12-20T12:53:41;28.30;;;18.13;;
846;SDS011;410;48.954;9.474;2022-12-20T12:55:45;25.45;;;18.15;;
846;SDS011;410;48.954;9.474;2022-12-20T12:57:56;28.95;;;19.52;;
846;SDS011;410;48.954;9.474;2022-12-20T12:59:59;29.55;;;21.92;;
846;SDS011;410;48.954;9.474;2022-12-20T13:04:27;90.15;;;44.13;;
846;SDS011;410;48.954;9.474;2022-12-20T13:06:52;81.53;;;32.88;;
846;SDS011;410;48.954;9.474;2022-12-20T13:09:09;43.08;;;27.13;;
846;SDS011;410;48.954;9.474;2022-12-20T13:11:27;37.42;;;22.83;;
846;SDS011;410;48.954;9.474;2022-12-20T13:13:32;33.78;;;20.70;;
846;SDS011;410;48.954;9.474;2022-12-20T13:18:22;30.85;;;23.60;;
846;SDS011;410;48.954;9.474;2022-12-20T13:20:29;29.23;;;21.00;;
846;SDS011;410;48.954;9.474;2022-12-20T13:22:33;26.67;;;18.00;;
846;SDS011;410;48.954;9.474;2022-12-20T13:24:46;24.58;;;18.42;;
846;SDS011;410;48.954;9.474;2022-12-20T13:26:57;27.33;;;18.85;;
846;SDS011;410;48.954;9.474;2022-12-20T13:29:12;26.38;;;18.17;;
846;SDS011;410;48.954;9.474;2022-12-20T13:31:29;23.55;;;18.58;;
846;SDS011;410;48.954;9.474;2022-12-20T13:33:39;27.50;;;19.77;;
846;SDS011;410;48.954;9.474;2022-12-20T13:35:46;38.22;;;23.25;;
846;SDS011;410;48.954;9.474;2022-12-20T13:37:57;47.58;;;32.35;;
846;SDS011;410;48.954;9.474;2022-12-20T13:40:05;39.88;;;28.15;;